sensor_id;sensor_type;location;lat;lon;timestamp;P1;durP1;ratioP1;P2;durP2;ratioP2
16804;SDS011;8520;50.102;20.010;2022-09-09T00:01:13;99.70;;;94.00;;
16804;SDS011;8520;50.102;20.010;2022-09-09T00:04:16;100.80;;;95.00;;
16804;SDS011;8520;50.102;20.010;2022-09-09T00:07:15;99.90;;;94.10;;
16804;SDS011;8520;50.102;20.010;2022-09-09T00:10:16;100.50;;;94.80;;
16804;SDS011;8520;50.102;20.010;2022-09-09T00:13:13;100.35;;;94.65;;
16804;SDS011;8520;50.102;20.010;2022-09-09T00:16:07;100.10;;;94.28;;
16804;SDS011;8520;50.102;20.010;2022-09-09T00:19:05;100.50;;;94.50;;
16804;SDS011;8520;50.102;20.010;2022-09-09T00:22:04;99.65;;;93.93;;
16804;SDS011;8520;50.102;20.010;2022-09-09T00:25:02;97.78;;;92.35;;
16804;SDS011;8520;50.102;20.010;2022-09-09T00:27:59;97.63;;;92.05;;
16804;SDS011;8520;50.102;20.010;2022-09-09T00:30:48;95.97;;;90.57;;
16804;SDS011;8520;50.102;20.010;2022-09-09T00:33:36;94.57;;;89.18;;
16804;SDS011;8520;50.102;20.010;2022-09-09T00:36:27;94.65;;;89.35;;
16804;SDS011;8520;50.102;20.010;2022-09-09T00:39:21;95.07;;;89.78;;
16804;SDS011;8520;50.102;20.010;2022-09-09T00:42:14;94.07;;;88.72;;
16804;SDS011;8520;50.102;20.010;2022-09-09T00:45:09;93.85;;;88.72;;
16804;SDS011;8520;50.102;20.010;2022-09-09T00:48:10;95.07;;;89.78;;
16804;SDS011;8520;50.102;20.010;2022-09-09T00:51:00;94.50;;;89.10;;
16804;SDS011;8520;50.102;20.010;2022-09-09T00:54:08;93.95;;;88.70;;
16804;SDS011;8520;50.102;20.010;2022-09-09T00:57:13;93.40;;;88.25;;
16804;SDS011;8520;50.102;20.010;2022-09-09T01:00:18;92.90;;;87.38;;
16804;SDS011;8520;50.102;20.010;2022-09-09T01:03:18;92.53;;;87.53;;
16804;SDS011;8520;50.102;20.010;2022-09-09T01:06:15;93.28;;;88.00;;
16804;SDS011;8520;50.102;20.010;2022-09-09T01:09:11;90.82;;;85.90;;
16804;SDS011;8520;50.102;20.010;2022-09-09T01:12:08;90.25;;;85.32;;
16804;SDS011;8520;50.102;20.010;2022-09-09T01:15:07;88.78;;;83.88;;
16804;SDS011;8520;50.102;20.010;2022-09-09T01:18:07;90.90;;;85.70;;
16804;SDS011;8520;50.102;20.010;2022-09-09T01:21:04;89.18;;;84.38;;
16804;SDS011;8520;50.102;20.010;2022-09-09T01:24:08;90.57;;;85.47;;
16804;SDS011;8520;50.102;20.010;2022-09-09T01:27:33;92.45;;;87.25;;
16804;SDS011;8520;50.102;20.010;2022-09-09T01:30:24;92.20;;;87.10;;
16804;SDS011;8520;50.102;20.010;2022-09-09T01:33:17;91.03;;;86.05;;
16804;SDS011;8520;50.102;20.010;2022-09-09T01:36:06;91.47;;;86.38;;
16804;SDS011;8520;50.102;20.010;2022-09-09T01:39:08;93.00;;;88.00;;
16804;SDS011;8520;50.102;20.010;2022-09-09T01:41:57;93.50;;;88.22;;
16804;SDS011;8520;50.102;20.010;2022-09-09T01:44:48;92.43;;;87.32;;
16804;SDS011;8520;50.102;20.010;2022-09-09T01:47:36;93.80;;;88.53;;
16804;SDS011;8520;50.102;20.010;2022-09-09T01:50:36;93.88;;;88.68;;
16804;SDS011;8520;50.102;20.010;2022-09-09T01:53:26;95.28;;;89.78;;
16804;SDS011;8520;50.102;20.010;2022-09-09T01:56:18;95.45;;;90.05;;
16804;SDS011;8520;50.102;20.010;2022-09-09T01:59:18;95.40;;;89.95;;
16804;SDS011;8520;50.102;20.010;2022-09-09T02:02:21;95.90;;;90.60;;
16804;SDS011;8520;50.102;20.010;2022-09-09T02:05:38;97.60;;;92.00;;
16804;SDS011;8520;50.102;20.010;2022-09-09T02:08:37;96.97;;;91.38;;
16804;SDS011;8520;50.102;20.010;2022-09-09T02:11:31;96.70;;;91.40;;
16804;SDS011;8520;50.102;20.010;2022-09-09T02:14:30;95.47;;;90.07;;
16804;SDS011;8520;50.102;20.010;2022-09-09T02:17:26;95.15;;;89.65;;
16804;SDS011;8520;50.102;20.010;2022-09-09T02:20:25;93.72;;;88.53;;
16804;SDS011;8520;50.102;20.010;2022-09-09T02:23:20;92.43;;;87.32;;
16804;SDS011;8520;50.102;20.010;2022-09-09T02:26:12;92.30;;;86.90;;
16804;SDS011;8520;50.102;20.010;2022-09-09T02:29:12;91.20;;;86.03;;
16804;SDS011;8520;50.102;20.010;2022-09-09T02:32:05;91.53;;;86.35;;
16804;SDS011;8520;50.102;20.010;2022-09-09T02:34:59;89.88;;;84.70;;
16804;SDS011;8520;50.102;20.010;2022-09-09T02:37:53;91.65;;;86.63;;
16804;SDS011;8520;50.102;20.010;2022-09-09T02:40:46;92.80;;;87.40;;
16804;SDS011;8520;50.102;20.010;2022-09-09T02:43:35;91.13;;;85.90;;
16804;SDS011;8520;50.102;20.010;2022-09-09T02:46:32;89.57;;;84.68;;
16804;SDS011;8520;50.102;20.010;2022-09-09T02:49:33;93.30;;;88.00;;
16804;SDS011;8520;50.102;20.010;2022-09-09T02:52:32;93.75;;;88.32;;
16804;SDS011;8520;50.102;20.010;2022-09-09T02:55:31;92.22;;;87.22;;
16804;SDS011;8520;50.102;20.010;2022-09-09T02:58:28;94.03;;;88.78;;
16804;SDS011;8520;50.102;20.010;2022-09-09T03:01:22;93.65;;;88.45;;
16804;SDS011;8520;50.102;20.010;2022-09-09T03:04:10;95.22;;;89.60;;
16804;SDS011;8520;50.102;20.010;2022-09-09T03:06:59;94.30;;;89.10;;
16804;SDS011;8520;50.102;20.010;2022-09-09T03:09:49;96.60;;;90.97;;
16804;SDS011;8520;50.102;20.010;2022-09-09T03:12:42;99.00;;;93.43;;
16804;SDS011;8520;50.102;20.010;2022-09-09T03:15:31;98.28;;;92.57;;
16804;SDS011;8520;50.102;20.010;2022-09-09T03:18:20;99.28;;;93.45;;
16804;SDS011;8520;50.102;20.010;2022-09-09T03:21:11;100.32;;;94.55;;
16804;SDS011;8520;50.102;20.010;2022-09-09T03:24:01;100.05;;;94.25;;
16804;SDS011;8520;50.102;20.010;2022-09-09T03:26:52;101.78;;;95.88;;
16804;SDS011;8520;50.102;20.010;2022-09-09T03:29:42;100.65;;;94.95;;
16804;SDS011;8520;50.102;20.010;2022-09-09T03:32:36;100.82;;;95.00;;
16804;SDS011;8520;50.102;20.010;2022-09-09T03:35:26;101.00;;;95.10;;
16804;SDS011;8520;50.102;20.010;2022-09-09T03:38:14;100.10;;;94.30;;
16804;SDS011;8520;50.102;20.010;2022-09-09T03:41:03;101.00;;;95.10;;
16804;SDS011;8520;50.102;20.010;2022-09-09T03:43:56;102.15;;;96.25;;
16804;SDS011;8520;50.102;20.010;2022-09-09T03:46:46;102.38;;;96.47;;
16804;SDS011;8520;50.102;20.010;2022-09-09T03:49:35;103.65;;;97.32;;
16804;SDS011;8520;50.102;20.010;2022-09-09T03:52:24;103.18;;;97.07;;
16804;SDS011;8520;50.102;20.010;2022-09-09T03:55:13;102.57;;;96.60;;
16804;SDS011;8520;50.102;20.010;2022-09-09T03:58:02;102.97;;;96.85;;
16804;SDS011;8520;50.102;20.010;2022-09-09T04:00:55;103.22;;;97.22;;
16804;SDS011;8520;50.102;20.010;2022-09-09T04:03:46;103.15;;;97.15;;
16804;SDS011;8520;50.102;20.010;2022-09-09T04:06:34;104.00;;;97.95;;
16804;SDS011;8520;50.102;20.010;2022-09-09T04:09:23;101.35;;;95.30;;
16804;SDS011;8520;50.102;20.010;2022-09-09T04:12:11;102.93;;;96.97;;
16804;SDS011;8520;50.102;20.010;2022-09-09T04:15:01;103.57;;;97.50;;
16804;SDS011;8520;50.102;20.010;2022-09-09T04:17:52;102.70;;;96.70;;
16804;SDS011;8520;50.102;20.010;2022-09-09T04:20:40;101.03;;;95.15;;
16804;SDS011;8520;50.102;20.010;2022-09-09T04:23:30;100.88;;;94.97;;
16804;SDS011;8520;50.102;20.010;2022-09-09T04:26:20;101.55;;;95.78;;
16804;SDS011;8520;50.102;20.010;2022-09-09T04:29:09;101.13;;;95.22;;
16804;SDS011;8520;50.102;20.010;2022-09-09T04:31:59;101.70;;;95.55;;
16804;SDS011;8520;50.102;20.010;2022-09-09T04:34:49;100.53;;;94.82;;
16804;SDS011;8520;50.102;20.010;2022-09-09T04:37:38;101.43;;;95.72;;
16804;SDS011;8520;50.102;20.010;2022-09-09T04:40:26;101.80;;;96.10;;
16804;SDS011;8520;50.102;20.010;2022-09-09T04:43:15;101.80;;;95.90;;
16804;SDS011;8520;50.102;20.010;2022-09-09T04:46:04;102.07;;;95.97;;
16804;SDS011;8520;50.102;20.010;2022-09-09T04:48:53;102.32;;;96.32;;
16804;SDS011;8520;50.102;20.010;2022-09-09T04:51:47;103.78;;;97.35;;
16804;SDS011;8520;50.102;20.010;2022-09-09T04:54:37;103.07;;;97.07;;
16804;SDS011;8520;50.102;20.010;2022-09-09T04:57:26;104.80;;;98.60;;
16804;SDS011;8520;50.102;20.010;2022-09-09T05:00:15;103.93;;;97.55;;
16804;SDS011;8520;50.102;20.010;2022-09-09T05:03:06;100.63;;;94.75;;
16804;SDS011;8520;50.102;20.010;2022-09-09T05:06:01;100.78;;;95.00;;
16804;SDS011;8520;50.102;20.010;2022-09-09T05:08:52;100.35;;;94.57;;
16804;SDS011;8520;50.102;20.010;2022-09-09T05:11:46;99.35;;;93.57;;
16804;SDS011;8520;50.102;20.010;2022-09-09T05:14:48;99.72;;;94.03;;
16804;SDS011;8520;50.102;20.010;2022-09-09T05:17:37;99.15;;;93.25;;
16804;SDS011;8520;50.102;20.010;2022-09-09T05:20:25;97.40;;;91.82;;
16804;SDS011;8520;50.102;20.010;2022-09-09T05:23:14;96.45;;;91.00;;
16804;SDS011;8520;50.102;20.010;2022-09-09T05:26:05;95.97;;;90.63;;
16804;SDS011;8520;50.102;20.010;2022-09-09T05:28:54;94.60;;;89.22;;
16804;SDS011;8520;50.102;20.010;2022-09-09T05:31:43;94.60;;;88.80;;
16804;SDS011;8520;50.102;20.010;2022-09-09T05:34:34;93.35;;;87.72;;
16804;SDS011;8520;50.102;20.010;2022-09-09T05:37:24;90.75;;;85.85;;
16804;SDS011;8520;50.102;20.010;2022-09-09T05:40:13;88.57;;;83.57;;
16804;SDS011;8520;50.102;20.010;2022-09-09T05:43:02;88.00;;;82.97;;
16804;SDS011;8520;50.102;20.010;2022-09-09T05:45:58;86.68;;;81.68;;
16804;SDS011;8520;50.102;20.010;2022-09-09T05:48:49;89.03;;;83.78;;
16804;SDS011;8520;50.102;20.010;2022-09-09T05:51:45;90.15;;;84.75;;
16804;SDS011;8520;50.102;20.010;2022-09-09T05:54:37;94.20;;;88.47;;
16804;SDS011;8520;50.102;20.010;2022-09-09T05:57:26;92.00;;;86.60;;
16804;SDS011;8520;50.102;20.010;2022-09-09T06:00:16;88.95;;;83.65;;
16804;SDS011;8520;50.102;20.010;2022-09-09T06:03:06;86.72;;;81.47;;
16804;SDS011;8520;50.102;20.010;2022-09-09T06:05:58;87.30;;;82.10;;
16804;SDS011;8520;50.102;20.010;2022-09-09T06:08:47;91.07;;;85.47;;
16804;SDS011;8520;50.102;20.010;2022-09-09T06:11:39;92.28;;;86.50;;
16804;SDS011;8520;50.102;20.010;2022-09-09T06:14:29;88.07;;;82.70;;
16804;SDS011;8520;50.102;20.010;2022-09-09T06:17:20;81.95;;;76.85;;
16804;SDS011;8520;50.102;20.010;2022-09-09T06:20:09;78.18;;;73.50;;
16804;SDS011;8520;50.102;20.010;2022-09-09T06:22:57;77.78;;;73.18;;
16804;SDS011;8520;50.102;20.010;2022-09-09T06:25:46;77.28;;;72.25;;
16804;SDS011;8520;50.102;20.010;2022-09-09T06:28:36;76.55;;;71.75;;
16804;SDS011;8520;50.102;20.010;2022-09-09T06:31:25;74.43;;;69.70;;
16804;SDS011;8520;50.102;20.010;2022-09-09T06:34:22;76.45;;;71.22;;
16804;SDS011;8520;50.102;20.010;2022-09-09T06:37:15;77.32;;;72.32;;
16804;SDS011;8520;50.102;20.010;2022-09-09T06:40:08;76.78;;;71.82;;
16804;SDS011;8520;50.102;20.010;2022-09-09T06:42:59;73.00;;;68.47;;
16804;SDS011;8520;50.102;20.010;2022-09-09T06:45:55;73.68;;;68.97;;
16804;SDS011;8520;50.102;20.010;2022-09-09T06:48:44;67.35;;;63.25;;
16804;SDS011;8520;50.102;20.010;2022-09-09T06:51:37;61.33;;;57.53;;
16804;SDS011;8520;50.102;20.010;2022-09-09T06:54:31;64.75;;;60.65;;
16804;SDS011;8520;50.102;20.010;2022-09-09T06:57:19;60.03;;;56.55;;
16804;SDS011;8520;50.102;20.010;2022-09-09T07:00:30;63.80;;;60.00;;
16804;SDS011;8520;50.102;20.010;2022-09-09T07:03:18;58.78;;;55.45;;
16804;SDS011;8520;50.102;20.010;2022-09-09T07:06:08;58.60;;;55.00;;
16804;SDS011;8520;50.102;20.010;2022-09-09T07:09:04;55.22;;;51.72;;
16804;SDS011;8520;50.102;20.010;2022-09-09T07:11:53;54.13;;;50.90;;
16804;SDS011;8520;50.102;20.010;2022-09-09T07:14:43;50.20;;;47.22;;
16804;SDS011;8520;50.102;20.010;2022-09-09T07:17:32;53.08;;;49.78;;
16804;SDS011;8520;50.102;20.010;2022-09-09T07:20:20;49.50;;;46.88;;
16804;SDS011;8520;50.102;20.010;2022-09-09T07:23:10;48.42;;;45.72;;
16804;SDS011;8520;50.102;20.010;2022-09-09T07:25:59;47.45;;;44.72;;
16804;SDS011;8520;50.102;20.010;2022-09-09T07:28:48;47.17;;;44.45;;
16804;SDS011;8520;50.102;20.010;2022-09-09T07:31:37;46.55;;;43.90;;
16804;SDS011;8520;50.102;20.010;2022-09-09T07:34:30;47.60;;;44.83;;
16804;SDS011;8520;50.102;20.010;2022-09-09T07:37:19;47.72;;;44.67;;
16804;SDS011;8520;50.102;20.010;2022-09-09T07:40:08;52.03;;;48.75;;
16804;SDS011;8520;50.102;20.010;2022-09-09T07:42:58;52.05;;;48.85;;
16804;SDS011;8520;50.102;20.010;2022-09-09T07:45:47;51.83;;;48.75;;
16804;SDS011;8520;50.102;20.010;2022-09-09T07:48:37;53.95;;;50.70;;
16804;SDS011;8520;50.102;20.010;2022-09-09T07:51:26;54.40;;;50.88;;
16804;SDS011;8520;50.102;20.010;2022-09-09T07:54:17;49.70;;;46.70;;
16804;SDS011;8520;50.102;20.010;2022-09-09T07:57:11;47.22;;;44.00;;
16804;SDS011;8520;50.102;20.010;2022-09-09T08:00:02;45.15;;;42.42;;
16804;SDS011;8520;50.102;20.010;2022-09-09T08:02:57;40.47;;;38.10;;
16804;SDS011;8520;50.102;20.010;2022-09-09T08:05:49;34.20;;;32.28;;
16804;SDS011;8520;50.102;20.010;2022-09-09T08:08:39;32.83;;;31.13;;
16804;SDS011;8520;50.102;20.010;2022-09-09T08:11:31;34.13;;;32.15;;
16804;SDS011;8520;50.102;20.010;2022-09-09T08:14:24;33.28;;;31.08;;
16804;SDS011;8520;50.102;20.010;2022-09-09T08:17:15;32.45;;;30.42;;
16804;SDS011;8520;50.102;20.010;2022-09-09T08:20:04;29.92;;;28.23;;
16804;SDS011;8520;50.102;20.010;2022-09-09T08:22:55;25.73;;;24.50;;
16804;SDS011;8520;50.102;20.010;2022-09-09T08:25:44;23.35;;;22.15;;
16804;SDS011;8520;50.102;20.010;2022-09-09T08:28:32;21.35;;;20.35;;
16804;SDS011;8520;50.102;20.010;2022-09-09T08:31:21;21.23;;;20.13;;
16804;SDS011;8520;50.102;20.010;2022-09-09T08:34:13;23.83;;;22.52;;
16804;SDS011;8520;50.102;20.010;2022-09-09T08:37:02;21.77;;;20.77;;
16804;SDS011;8520;50.102;20.010;2022-09-09T08:39:56;17.13;;;16.13;;
16804;SDS011;8520;50.102;20.010;2022-09-09T08:42:45;16.50;;;15.50;;
16804;SDS011;8520;50.102;20.010;2022-09-09T08:45:43;16.00;;;14.75;;
16804;SDS011;8520;50.102;20.010;2022-09-09T08:48:43;15.38;;;14.68;;
16804;SDS011;8520;50.102;20.010;2022-09-09T08:51:41;13.48;;;12.77;;
16804;SDS011;8520;50.102;20.010;2022-09-09T08:54:33;12.88;;;12.20;;
16804;SDS011;8520;50.102;20.010;2022-09-09T08:57:39;12.30;;;11.80;;
16804;SDS011;8520;50.102;20.010;2022-09-09T09:00:30;12.10;;;11.38;;
16804;SDS011;8520;50.102;20.010;2022-09-09T09:03:28;10.23;;;9.70;;
16804;SDS011;8520;50.102;20.010;2022-09-09T09:06:28;9.35;;;8.75;;
16804;SDS011;8520;50.102;20.010;2022-09-09T09:09:32;9.05;;;8.45;;
16804;SDS011;8520;50.102;20.010;2022-09-09T09:12:35;8.40;;;8.00;;
16804;SDS011;8520;50.102;20.010;2022-09-09T09:15:30;7.97;;;7.47;;
16804;SDS011;8520;50.102;20.010;2022-09-09T09:18:23;7.05;;;6.68;;
16804;SDS011;8520;50.102;20.010;2022-09-09T09:21:13;6.85;;;6.45;;
16804;SDS011;8520;50.102;20.010;2022-09-09T09:24:10;6.63;;;6.22;;
16804;SDS011;8520;50.102;20.010;2022-09-09T09:27:11;5.80;;;5.40;;
16804;SDS011;8520;50.102;20.010;2022-09-09T09:30:12;5.70;;;5.30;;
16804;SDS011;8520;50.102;20.010;2022-09-09T09:33:15;5.22;;;4.82;;
16804;SDS011;8520;50.102;20.010;2022-09-09T09:36:09;4.90;;;4.60;;
16804;SDS011;8520;50.102;20.010;2022-09-09T09:39:01;4.80;;;4.60;;
16804;SDS011;8520;50.102;20.010;2022-09-09T09:42:15;5.38;;;4.95;;
16804;SDS011;8520;50.102;20.010;2022-09-09T09:45:14;4.50;;;4.30;;
16804;SDS011;8520;50.102;20.010;2022-09-09T09:48:10;4.50;;;4.20;;
16804;SDS011;8520;50.102;20.010;2022-09-09T09:51:01;4.72;;;3.63;;
16804;SDS011;8520;50.102;20.010;2022-09-09T09:54:08;8.10;;;4.18;;
16804;SDS011;8520;50.102;20.010;2022-09-09T09:57:08;4.18;;;3.78;;
16804;SDS011;8520;50.102;20.010;2022-09-09T10:00:11;3.40;;;3.20;;
16804;SDS011;8520;50.102;20.010;2022-09-09T10:03:13;3.90;;;3.60;;
16804;SDS011;8520;50.102;20.010;2022-09-09T10:06:10;4.00;;;3.70;;
16804;SDS011;8520;50.102;20.010;2022-09-09T10:08:59;3.80;;;3.50;;
16804;SDS011;8520;50.102;20.010;2022-09-09T10:11:51;3.65;;;3.20;;
16804;SDS011;8520;50.102;20.010;2022-09-09T10:14:46;3.95;;;3.65;;
16804;SDS011;8520;50.102;20.010;2022-09-09T10:17:44;3.50;;;3.30;;
16804;SDS011;8520;50.102;20.010;2022-09-09T10:20:51;4.07;;;3.78;;
16804;SDS011;8520;50.102;20.010;2022-09-09T10:23:52;6.20;;;3.63;;
16804;SDS011;8520;50.102;20.010;2022-09-09T10:26:51;5.07;;;3.50;;
16804;SDS011;8520;50.102;20.010;2022-09-09T10:29:48;3.60;;;3.40;;
16804;SDS011;8520;50.102;20.010;2022-09-09T10:32:49;3.97;;;3.58;;
16804;SDS011;8520;50.102;20.010;2022-09-09T10:35:50;3.88;;;3.60;;
16804;SDS011;8520;50.102;20.010;2022-09-09T10:38:47;3.80;;;3.60;;
16804;SDS011;8520;50.102;20.010;2022-09-09T10:41:43;4.10;;;3.80;;
16804;SDS011;8520;50.102;20.010;2022-09-09T10:44:41;3.50;;;3.30;;
16804;SDS011;8520;50.102;20.010;2022-09-09T10:47:52;3.75;;;3.45;;
16804;SDS011;8520;50.102;20.010;2022-09-09T10:50:54;3.33;;;3.05;;
16804;SDS011;8520;50.102;20.010;2022-09-09T10:53:56;3.60;;;3.30;;
16804;SDS011;8520;50.102;20.010;2022-09-09T10:56:58;2.75;;;2.65;;
16804;SDS011;8520;50.102;20.010;2022-09-09T10:59:52;3.25;;;2.95;;
16804;SDS011;8520;50.102;20.010;2022-09-09T11:02:47;3.22;;;2.92;;
16804;SDS011;8520;50.102;20.010;2022-09-09T11:05:42;2.90;;;2.70;;
16804;SDS011;8520;50.102;20.010;2022-09-09T11:08:34;3.00;;;2.80;;
16804;SDS011;8520;50.102;20.010;2022-09-09T11:11:27;2.90;;;2.80;;
16804;SDS011;8520;50.102;20.010;2022-09-09T11:14:22;3.13;;;2.83;;
16804;SDS011;8520;50.102;20.010;2022-09-09T11:17:23;3.60;;;3.40;;
16804;SDS011;8520;50.102;20.010;2022-09-09T11:20:17;3.03;;;2.83;;
16804;SDS011;8520;50.102;20.010;2022-09-09T11:23:09;2.50;;;2.40;;
16804;SDS011;8520;50.102;20.010;2022-09-09T11:26:01;2.75;;;2.60;;
16804;SDS011;8520;50.102;20.010;2022-09-09T11:28:55;2.78;;;2.58;;
16804;SDS011;8520;50.102;20.010;2022-09-09T11:31:58;2.80;;;2.60;;
16804;SDS011;8520;50.102;20.010;2022-09-09T11:35:00;3.40;;;3.20;;
16804;SDS011;8520;50.102;20.010;2022-09-09T11:38:00;2.97;;;2.78;;
16804;SDS011;8520;50.102;20.010;2022-09-09T11:40:58;2.65;;;2.50;;
16804;SDS011;8520;50.102;20.010;2022-09-09T11:43:49;2.75;;;2.38;;
16804;SDS011;8520;50.102;20.010;2022-09-09T11:46:39;2.10;;;2.00;;
16804;SDS011;8520;50.102;20.010;2022-09-09T11:49:29;2.95;;;2.50;;
16804;SDS011;8520;50.102;20.010;2022-09-09T11:52:35;2.80;;;2.70;;
16804;SDS011;8520;50.102;20.010;2022-09-09T11:55:29;3.25;;;2.78;;
16804;SDS011;8520;50.102;20.010;2022-09-09T11:58:21;3.58;;;3.30;;
16804;SDS011;8520;50.102;20.010;2022-09-09T12:01:27;3.20;;;3.00;;
16804;SDS011;8520;50.102;20.010;2022-09-09T12:04:28;3.50;;;3.30;;
16804;SDS011;8520;50.102;20.010;2022-09-09T12:07:23;3.00;;;2.90;;
16804;SDS011;8520;50.102;20.010;2022-09-09T12:10:19;3.33;;;3.00;;
16804;SDS011;8520;50.102;20.010;2022-09-09T12:13:15;3.40;;;3.30;;
16804;SDS011;8520;50.102;20.010;2022-09-09T12:16:06;3.15;;;2.80;;
16804;SDS011;8520;50.102;20.010;2022-09-09T12:19:21;5.28;;;3.53;;
16804;SDS011;8520;50.102;20.010;2022-09-09T12:22:15;2.90;;;2.70;;
16804;SDS011;8520;50.102;20.010;2022-09-09T12:25:16;3.13;;;2.90;;
16804;SDS011;8520;50.102;20.010;2022-09-09T12:28:14;3.10;;;2.90;;
16804;SDS011;8520;50.102;20.010;2022-09-09T12:31:08;3.10;;;2.88;;
16804;SDS011;8520;50.102;20.010;2022-09-09T12:34:10;2.63;;;2.53;;
16804;SDS011;8520;50.102;20.010;2022-09-09T12:37:03;3.70;;;2.72;;
16804;SDS011;8520;50.102;20.010;2022-09-09T12:39:58;2.90;;;2.80;;
16804;SDS011;8520;50.102;20.010;2022-09-09T12:42:49;3.10;;;2.85;;
16804;SDS011;8520;50.102;20.010;2022-09-09T12:45:38;3.20;;;3.00;;
16804;SDS011;8520;50.102;20.010;2022-09-09T12:48:30;2.67;;;2.55;;
16804;SDS011;8520;50.102;20.010;2022-09-09T12:51:25;3.03;;;2.83;;
16804;SDS011;8520;50.102;20.010;2022-09-09T12:54:16;3.30;;;3.10;;
16804;SDS011;8520;50.102;20.010;2022-09-09T12:57:09;3.03;;;2.83;;
16804;SDS011;8520;50.102;20.010;2022-09-09T13:00:04;3.13;;;2.92;;
16804;SDS011;8520;50.102;20.010;2022-09-09T13:02:57;4.40;;;2.67;;
16804;SDS011;8520;50.102;20.010;2022-09-09T13:05:47;3.20;;;2.90;;
16804;SDS011;8520;50.102;20.010;2022-09-09T13:08:38;2.30;;;2.20;;
16804;SDS011;8520;50.102;20.010;2022-09-09T13:11:28;2.72;;;2.53;;
16804;SDS011;8520;50.102;20.010;2022-09-09T13:14:25;3.08;;;2.88;;
16804;SDS011;8520;50.102;20.010;2022-09-09T13:17:18;2.47;;;2.38;;
16804;SDS011;8520;50.102;20.010;2022-09-09T13:20:14;2.42;;;2.33;;
16804;SDS011;8520;50.102;20.010;2022-09-09T13:23:04;3.70;;;2.33;;
16804;SDS011;8520;50.102;20.010;2022-09-09T13:25:55;2.78;;;2.60;;
16804;SDS011;8520;50.102;20.010;2022-09-09T13:28:44;3.15;;;2.92;;
16804;SDS011;8520;50.102;20.010;2022-09-09T13:31:35;2.70;;;2.60;;
16804;SDS011;8520;50.102;20.010;2022-09-09T13:34:26;3.10;;;3.00;;
16804;SDS011;8520;50.102;20.010;2022-09-09T13:37:17;3.33;;;3.13;;
16804;SDS011;8520;50.102;20.010;2022-09-09T13:40:15;4.72;;;2.30;;
16804;SDS011;8520;50.102;20.010;2022-09-09T13:43:12;3.47;;;3.20;;
16804;SDS011;8520;50.102;20.010;2022-09-09T13:46:22;3.30;;;3.00;;
16804;SDS011;8520;50.102;20.010;2022-09-09T13:49:19;9.43;;;3.40;;
16804;SDS011;8520;50.102;20.010;2022-09-09T13:52:10;14.13;;;4.28;;
16804;SDS011;8520;50.102;20.010;2022-09-09T13:55:00;6.78;;;3.47;;
16804;SDS011;8520;50.102;20.010;2022-09-09T13:57:51;3.30;;;3.00;;
16804;SDS011;8520;50.102;20.010;2022-09-09T14:00:42;7.05;;;3.35;;
16804;SDS011;8520;50.102;20.010;2022-09-09T14:03:31;3.00;;;2.90;;
16804;SDS011;8520;50.102;20.010;2022-09-09T14:06:20;4.75;;;2.70;;
16804;SDS011;8520;50.102;20.010;2022-09-09T14:09:10;3.03;;;2.63;;
16804;SDS011;8520;50.102;20.010;2022-09-09T14:12:02;3.53;;;2.50;;
16804;SDS011;8520;50.102;20.010;2022-09-09T14:14:51;2.80;;;2.60;;
16804;SDS011;8520;50.102;20.010;2022-09-09T14:17:41;3.13;;;2.80;;
16804;SDS011;8520;50.102;20.010;2022-09-09T14:20:29;3.45;;;3.17;;
16804;SDS011;8520;50.102;20.010;2022-09-09T14:23:18;3.60;;;3.50;;
16804;SDS011;8520;50.102;20.010;2022-09-09T14:26:08;3.83;;;3.55;;
16804;SDS011;8520;50.102;20.010;2022-09-09T14:28:57;2.60;;;2.50;;
16804;SDS011;8520;50.102;20.010;2022-09-09T14:31:47;2.88;;;2.70;;
16804;SDS011;8520;50.102;20.010;2022-09-09T14:34:37;2.85;;;2.70;;
16804;SDS011;8520;50.102;20.010;2022-09-09T14:37:26;2.85;;;2.60;;
16804;SDS011;8520;50.102;20.010;2022-09-09T14:40:15;3.72;;;3.53;;
16804;SDS011;8520;50.102;20.010;2022-09-09T14:43:03;3.10;;;2.80;;
16804;SDS011;8520;50.102;20.010;2022-09-09T14:45:52;3.15;;;2.85;;
16804;SDS011;8520;50.102;20.010;2022-09-09T14:48:41;2.90;;;2.70;;
16804;SDS011;8520;50.102;20.010;2022-09-09T14:51:32;2.97;;;2.78;;
16804;SDS011;8520;50.102;20.010;2022-09-09T14:54:21;2.60;;;2.50;;
16804;SDS011;8520;50.102;20.010;2022-09-09T14:57:09;2.80;;;2.60;;
16804;SDS011;8520;50.102;20.010;2022-09-09T14:59:58;2.90;;;2.70;;
16804;SDS011;8520;50.102;20.010;2022-09-09T15:02:46;4.18;;;2.80;;
16804;SDS011;8520;50.102;20.010;2022-09-09T15:05:35;3.42;;;2.70;;
16804;SDS011;8520;50.102;20.010;2022-09-09T15:08:25;2.88;;;2.60;;
16804;SDS011;8520;50.102;20.010;2022-09-09T15:11:14;2.65;;;2.45;;
16804;SDS011;8520;50.102;20.010;2022-09-09T15:14:03;2.83;;;2.72;;
16804;SDS011;8520;50.102;20.010;2022-09-09T15:16:51;2.75;;;2.60;;
16804;SDS011;8520;50.102;20.010;2022-09-09T15:19:40;2.60;;;2.50;;
16804;SDS011;8520;50.102;20.010;2022-09-09T15:22:28;3.20;;;3.00;;
16804;SDS011;8520;50.102;20.010;2022-09-09T15:25:19;5.63;;;4.47;;
16804;SDS011;8520;50.102;20.010;2022-09-09T15:28:08;2.92;;;2.83;;
16804;SDS011;8520;50.102;20.010;2022-09-09T15:30:57;9.27;;;6.88;;
16804;SDS011;8520;50.102;20.010;2022-09-09T15:33:47;7.40;;;6.32;;
16804;SDS011;8520;50.102;20.010;2022-09-09T15:36:36;5.25;;;4.75;;
16804;SDS011;8520;50.102;20.010;2022-09-09T15:39:25;7.03;;;5.63;;
16804;SDS011;8520;50.102;20.010;2022-09-09T15:42:15;4.28;;;3.97;;
16804;SDS011;8520;50.102;20.010;2022-09-09T15:45:04;14.05;;;7.55;;
16804;SDS011;8520;50.102;20.010;2022-09-09T15:47:53;6.20;;;5.03;;
16804;SDS011;8520;50.102;20.010;2022-09-09T15:50:41;12.55;;;6.63;;
16804;SDS011;8520;50.102;20.010;2022-09-09T15:53:29;8.18;;;7.38;;
16804;SDS011;8520;50.102;20.010;2022-09-09T15:56:19;10.45;;;8.82;;
16804;SDS011;8520;50.102;20.010;2022-09-09T15:59:09;8.40;;;7.10;;
16804;SDS011;8520;50.102;20.010;2022-09-09T16:01:58;7.20;;;6.50;;
16804;SDS011;8520;50.102;20.010;2022-09-09T16:04:47;7.28;;;5.45;;
16804;SDS011;8520;50.102;20.010;2022-09-09T16:07:36;5.35;;;4.75;;
16804;SDS011;8520;50.102;20.010;2022-09-09T16:10:24;3.95;;;3.75;;
16804;SDS011;8520;50.102;20.010;2022-09-09T16:13:12;4.20;;;3.85;;
16804;SDS011;8520;50.102;20.010;2022-09-09T16:16:02;4.35;;;3.95;;
16804;SDS011;8520;50.102;20.010;2022-09-09T16:18:53;5.07;;;3.70;;
16804;SDS011;8520;50.102;20.010;2022-09-09T16:21:43;3.92;;;3.63;;
16804;SDS011;8520;50.102;20.010;2022-09-09T16:24:33;4.25;;;3.40;;
16804;SDS011;8520;50.102;20.010;2022-09-09T16:27:21;6.03;;;3.65;;
16804;SDS011;8520;50.102;20.010;2022-09-09T16:30:10;4.32;;;3.92;;
16804;SDS011;8520;50.102;20.010;2022-09-09T16:33:00;4.13;;;3.83;;
16804;SDS011;8520;50.102;20.010;2022-09-09T16:35:48;4.47;;;4.10;;
16804;SDS011;8520;50.102;20.010;2022-09-09T16:38:37;4.53;;;4.20;;
16804;SDS011;8520;50.102;20.010;2022-09-09T16:41:27;4.57;;;4.28;;
16804;SDS011;8520;50.102;20.010;2022-09-09T16:44:17;4.43;;;4.20;;
16804;SDS011;8520;50.102;20.010;2022-09-09T16:47:06;6.13;;;4.28;;
16804;SDS011;8520;50.102;20.010;2022-09-09T16:49:55;5.13;;;4.70;;
16804;SDS011;8520;50.102;20.010;2022-09-09T16:52:44;5.13;;;4.25;;
16804;SDS011;8520;50.102;20.010;2022-09-09T16:55:32;4.93;;;4.63;;
16804;SDS011;8520;50.102;20.010;2022-09-09T16:58:20;5.50;;;5.10;;
16804;SDS011;8520;50.102;20.010;2022-09-09T17:01:09;4.97;;;4.57;;
16804;SDS011;8520;50.102;20.010;2022-09-09T17:04:01;5.70;;;5.20;;